Time;durP1;ratioP1;P1;durP2;ratioP2;P2;SDS_P1;SDS_P2;PMS_P1;PMS_P2;Temp;Humidity;BMP_temperature;BMP_pressure;BME280_temperature;BME280_humidity;BME280_pressure;Samples;Min_cycle;Max_cycle;Signal;HPM_P1;HPM_P2
2023/02/27 00:02:08;;;;;;;11.65;2.80;;;2.90;99.90;;;;;;5047337;28;20021;-72
2023/02/27 00:04:34;;;;;;;10.35;3.53;;;2.90;99.90;;;;;;5047398;28;20010;-72
2023/02/27 00:07:00;;;;;;;5.72;2.30;;;2.90;99.90;;;;;;5047534;28;20025;-73
2023/02/27 00:09:25;;;;;;;7.28;2.58;;;2.90;99.90;;;;;;5044368;28;20025;-72
2023/02/27 00:11:51;;;;;;;7.38;3.75;;;2.80;99.90;;;;;;5044299;28;20109;-72
2023/02/27 00:14:17;;;;;;;8.52;3.70;;;2.80;99.90;;;;;;5049381;28;20385;-72
2023/02/27 00:16:42;;;;;;;9.50;3.95;;;2.80;99.90;;;;;;5044979;28;20396;-72
2023/02/27 00:19:08;;;;;;;10.40;3.20;;;2.80;99.90;;;;;;5044831;28;20578;-72
2023/02/27 00:21:35;;;;;;;16.73;7.13;;;2.80;99.90;;;;;;5037820;28;20377;-73
2023/02/27 00:24:01;;;;;;;10.48;4.57;;;2.70;99.90;;;;;;5037503;28;20031;-73
2023/02/27 00:26:26;;;;;;;11.40;3.67;;;2.70;99.90;;;;;;5046054;28;20029;-73
2023/02/27 00:28:52;;;;;;;15.50;4.78;;;2.70;99.90;;;;;;5048076;28;20054;-72
2023/02/27 00:31:18;;;;;;;11.82;3.70;;;2.70;99.90;;;;;;5048255;28;20021;-72
2023/02/27 00:33:43;;;;;;;11.18;3.70;;;2.70;99.90;;;;;;5044375;28;20048;-72
2023/02/27 00:36:09;;;;;;;5.85;2.38;;;2.70;99.90;;;;;;5044448;27;20645;-72
2023/02/27 00:38:35;;;;;;;6.00;1.77;;;2.60;99.90;;;;;;5050348;28;20083;-72
2023/02/27 00:41:00;;;;;;;5.32;2.58;;;2.60;99.90;;;;;;5043701;28;20021;-72
2023/02/27 00:43:26;;;;;;;3.47;1.73;;;2.70;99.90;;;;;;5024644;27;20048;-72
2023/02/27 00:45:52;;;;;;;5.05;1.70;;;2.60;99.90;;;;;;5047134;27;20056;-72
2023/02/27 00:48:17;;;;;;;8.30;1.70;;;2.60;99.90;;;;;;5049536;27;20040;-71
2023/02/27 00:50:43;;;;;;;11.13;3.25;;;2.60;99.90;;;;;;5043275;27;20037;-71
2023/02/27 00:53:09;;;;;;;11.50;4.93;;;2.60;99.90;;;;;;5046940;27;20499;-71
2023/02/27 00:55:34;;;;;;;8.38;2.72;;;2.50;99.90;;;;;;5044807;27;20037;-72
2023/02/27 00:58:00;;;;;;;6.32;2.38;;;2.50;99.90;;;;;;5039648;27;20036;-71
2023/02/27 01:00:26;;;;;;;6.93;2.10;;;2.50;99.90;;;;;;5047192;27;20037;-71
2023/02/27 01:02:51;;;;;;;5.15;2.03;;;2.50;99.90;;;;;;5039221;27;20025;-72
2023/02/27 01:05:17;;;;;;;8.18;2.03;;;2.50;99.90;;;;;;5044506;27;20021;-71
2023/02/27 01:07:43;;;;;;;9.05;2.50;;;2.50;99.90;;;;;;5042390;27;20380;-72
2023/02/27 01:10:09;;;;;;;8.25;3.08;;;2.50;99.90;;;;;;5045632;27;20535;-72
2023/02/27 01:12:35;;;;;;;7.53;3.28;;;2.50;99.90;;;;;;5039794;27;20017;-72
2023/02/27 01:15:01;;;;;;;10.88;3.03;;;2.50;99.90;;;;;;5043186;27;20055;-71
2023/02/27 01:17:27;;;;;;;10.18;3.80;;;2.50;99.90;;;;;;5039619;27;20034;-71
2023/02/27 01:19:52;;;;;;;8.25;2.95;;;2.40;99.90;;;;;;5039399;27;20389;-71
2023/02/27 01:22:18;;;;;;;6.75;2.80;;;2.40;99.90;;;;;;5043818;27;20319;-71
2023/02/27 01:24:43;;;;;;;13.48;4.28;;;2.30;99.90;;;;;;5034667;27;20030;-72
2023/02/27 01:27:09;;;;;;;9.07;3.55;;;2.30;99.90;;;;;;5043857;27;20034;-71
2023/02/27 01:29:35;;;;;;;7.82;3.90;;;2.30;99.90;;;;;;5043077;27;20025;-72
2023/02/27 01:32:00;;;;;;;10.05;3.40;;;2.30;99.90;;;;;;5043033;27;20485;-72
2023/02/27 01:34:26;;;;;;;10.57;2.28;;;2.30;99.90;;;;;;5039244;27;20039;-71
2023/02/27 01:36:51;;;;;;;10.52;1.95;;;2.30;99.90;;;;;;5039243;27;20517;-72
2023/02/27 01:39:17;;;;;;;7.28;1.77;;;2.30;99.90;;;;;;5043331;27;20068;-71
2023/02/27 01:41:43;;;;;;;10.25;2.38;;;2.20;99.90;;;;;;5040718;27;20100;-72
2023/02/27 01:44:11;;;;;;;7.40;2.00;;;2.20;99.90;;;;;;5047065;27;20021;-71
2023/02/27 01:46:37;;;;;;;3.25;1.70;;;2.20;99.90;;;;;;5045391;27;20407;-72
2023/02/27 01:49:08;;;;;;;8.38;2.00;;;2.20;99.90;;;;;;5041132;27;20043;-71
2023/02/27 01:51:37;;;;;;;6.47;1.90;;;2.20;99.90;;;;;;5035376;27;20029;-71
2023/02/27 01:54:05;;;;;;;5.05;1.60;;;2.20;99.90;;;;;;5039972;27;20040;-71
2023/02/27 01:56:32;;;;;;;6.78;2.13;;;2.20;99.90;;;;;;5045158;27;20041;-71
2023/02/27 01:59:02;;;;;;;4.93;2.40;;;2.10;99.90;;;;;;5042853;27;20093;-71
2023/02/27 02:01:29;;;;;;;6.90;2.90;;;2.20;99.90;;;;;;5037495;27;20126;-71
2023/02/27 02:04:11;;;;;;;5.25;1.80;;;2.10;99.90;;;;;;5077734;27;20017;-71
2023/02/27 02:06:40;;;;;;;7.07;2.50;;;2.10;99.90;;;;;;5047025;27;20029;-70
2023/02/27 02:09:07;;;;;;;6.40;1.80;;;2.10;99.90;;;;;;5046281;27;20009;-71
2023/02/27 02:11:33;;;;;;;6.68;1.85;;;2.10;99.90;;;;;;5042096;27;20085;-70
2023/02/27 02:14:01;;;;;;;7.78;1.75;;;2.10;99.90;;;;;;5036231;27;22419;-70
2023/02/27 02:17:04;;;;;;;9.38;1.98;;;2.00;99.90;;;;;;5041733;27;20489;-71
2023/02/27 02:20:12;;;;;;;5.45;1.85;;;2.00;99.90;;;;;;5039915;27;20738;-70
2023/02/27 02:22:59;;;;;;;5.35;1.60;;;2.00;99.90;;;;;;5039148;27;20021;-70
2023/02/27 02:25:36;;;;;;;4.78;1.90;;;2.00;99.90;;;;;;5042740;27;20021;-69
2023/02/27 02:28:18;;;;;;;4.63;1.98;;;2.00;99.90;;;;;;5041561;27;20074;-70
2023/02/27 02:30:47;;;;;;;6.75;2.28;;;2.00;99.90;;;;;;5047209;27;20028;-70
2023/02/27 02:33:53;;;;;;;4.68;1.80;;;1.90;99.90;;;;;;5042259;27;20040;-71
2023/02/27 02:37:02;;;;;;;5.05;2.53;;;1.80;99.90;;;;;;5013425;27;20037;-70
2023/02/27 02:39:33;;;;;;;5.18;1.88;;;1.90;99.90;;;;;;5026919;27;20036;-70
2023/02/27 02:42:07;;;;;;;3.38;1.92;;;1.90;99.90;;;;;;5044385;27;20025;-70
2023/02/27 02:44:59;;;;;;;6.22;1.92;;;1.90;99.90;;;;;;5047581;27;20491;-70
2023/02/27 02:47:52;;;;;;;5.72;2.20;;;1.80;99.90;;;;;;5039060;27;20472;-70
2023/02/27 02:50:25;;;;;;;;;;;1.80;99.90;;;;;;5044160;27;20409;-70
2023/02/27 02:53:03;;;;;;;;;;;1.90;99.90;;;;;;5040302;27;19913;-70
2023/02/27 02:55:31;;;;;;;8.50;2.03;;;1.80;99.90;;;;;;5041166;27;19932;-69
2023/02/27 02:58:18;;;;;;;5.03;2.00;;;1.80;99.90;;;;;;5038041;27;20104;-70
2023/02/27 03:01:13;;;;;;;4.78;2.40;;;1.80;99.90;;;;;;5045301;27;20035;-71
2023/02/27 03:04:02;;;;;;;4.20;1.90;;;1.80;99.90;;;;;;5045132;27;20130;-70
2023/02/27 03:06:34;;;;;;;6.07;2.20;;;1.70;99.90;;;;;;5032373;27;20110;-71
2023/02/27 03:09:12;;;;;;;;;;;1.70;99.90;;;;;;5041949;28;20060;-71
2023/02/27 03:11:41;;;;;;;6.35;2.33;;;1.70;99.90;;;;;;5045106;28;20365;-71
2023/02/27 03:14:13;;;;;;;8.05;2.05;;;1.70;99.90;;;;;;5041499;28;20064;-71
2023/02/27 03:16:47;;;;;;;6.78;2.40;;;1.70;99.90;;;;;;5039978;28;20029;-70
2023/02/27 03:19:15;;;;;;;7.25;2.05;;;1.70;99.90;;;;;;5041783;28;20062;-70
2023/02/27 03:21:48;;;;;;;6.07;2.25;;;1.70;99.90;;;;;;5044489;28;20038;-70
2023/02/27 03:24:20;;;;;;;5.45;1.75;;;1.70;99.90;;;;;;5040384;28;20028;-71
2023/02/27 03:26:48;;;;;;;6.80;2.38;;;1.60;99.90;;;;;;5043992;28;20050;-71
2023/02/27 03:29:20;;;;;;;4.38;2.15;;;1.60;99.90;;;;;;5046099;28;20021;-72
2023/02/27 03:31:51;;;;;;;6.45;2.22;;;1.60;99.90;;;;;;5051074;28;20036;-70
2023/02/27 03:34:38;;;;;;;11.68;2.50;;;1.60;99.90;;;;;;5048404;28;20079;-71
2023/02/27 03:37:37;;;;;;;8.43;2.83;;;1.60;99.90;;;;;;5047243;28;20076;-71
2023/02/27 03:40:30;;;;;;;6.38;2.47;;;1.60;99.90;;;;;;5042914;28;20050;-69
2023/02/27 03:43:05;;;;;;;7.10;2.72;;;1.60;99.90;;;;;;5042555;28;20035;-70
2023/02/27 03:45:52;;;;;;;9.98;3.22;;;1.60;99.90;;;;;;5047568;28;20041;-70
2023/02/27 03:48:18;;;;;;;5.68;2.63;;;1.60;99.90;;;;;;5046480;28;20031;-70
2023/02/27 03:50:44;;;;;;;10.68;3.20;;;1.60;99.90;;;;;;5047041;28;20404;-70
2023/02/27 03:53:17;;;;;;;5.55;2.65;;;1.60;99.90;;;;;;5047984;28;20033;-70
2023/02/27 03:55:46;;;;;;;7.82;2.63;;;1.60;99.90;;;;;;5048291;28;20389;-72
2023/02/27 03:58:12;;;;;;;7.05;2.70;;;1.50;99.90;;;;;;5051868;28;20161;-70
2023/02/27 04:00:37;;;;;;;9.48;2.97;;;1.50;99.90;;;;;;5037845;28;20060;-70
2023/02/27 04:03:04;;;;;;;6.13;2.78;;;1.50;99.90;;;;;;5043797;28;20029;-70
2023/02/27 04:05:30;;;;;;;7.90;2.30;;;1.50;99.90;;;;;;5045147;28;20112;-70
2023/02/27 04:08:23;;;;;;;6.07;2.60;;;1.50;99.90;;;;;;5050116;28;20104;-70
2023/02/27 04:11:11;;;;;;;6.70;2.53;;;1.50;99.90;;;;;;5042994;28;20025;-70
2023/02/27 04:13:42;;;;;;;9.30;2.95;;;1.50;99.90;;;;;;5044151;28;20529;-70
2023/02/27 04:16:28;;;;;;;6.53;3.10;;;1.50;99.90;;;;;;5048853;28;22497;-71
2023/02/27 04:19:03;;;;;;;7.03;3.03;;;1.50;99.90;;;;;;5043785;28;20025;-69
2023/02/27 04:21:54;;;;;;;8.75;2.83;;;1.50;99.90;;;;;;5045191;28;20040;-71
2023/02/27 04:24:36;;;;;;;5.50;2.38;;;1.50;99.90;;;;;;5045601;28;20021;-71
2023/02/27 04:27:12;;;;;;;;;;;1.50;99.90;;;;;;5050239;28;20029;-70
2023/02/27 04:29:58;;;;;;;8.98;2.97;;;1.40;99.90;;;;;;5043336;28;19909;-70
2023/02/27 04:32:41;;;;;;;5.53;2.60;;;1.50;99.90;;;;;;5038799;28;20022;-71
2023/02/27 04:35:19;;;;;;;9.68;2.97;;;1.40;99.90;;;;;;5044629;28;20420;-72
2023/02/27 04:37:59;;;;;;;5.85;2.92;;;1.40;99.90;;;;;;5040272;28;20036;-72
2023/02/27 04:40:38;;;;;;;5.55;3.08;;;1.40;99.90;;;;;;5042913;28;20017;-71
2023/02/27 04:43:07;;;;;;;5.50;3.03;;;1.40;99.90;;;;;;5039890;28;20013;-70
2023/02/27 04:45:37;;;;;;;8.10;3.03;;;1.40;99.90;;;;;;5044120;28;20415;-71
2023/02/27 04:48:14;;;;;;;8.65;3.35;;;1.30;99.90;;;;;;5038309;28;20108;-71
2023/02/27 04:50:49;;;;;;;7.25;3.00;;;1.30;99.90;;;;;;5040669;28;20104;-71
2023/02/27 04:53:25;;;;;;;12.63;3.38;;;1.30;99.90;;;;;;5045703;28;20040;-71
2023/02/27 04:55:59;;;;;;;9.80;3.08;;;1.30;99.90;;;;;;5042340;28;20127;-71
2023/02/27 04:58:36;;;;;;;7.70;2.58;;;1.30;99.90;;;;;;5037409;28;20071;-71
2023/02/27 05:01:10;;;;;;;8.07;3.10;;;1.30;99.90;;;;;;5042106;28;20456;-71
2023/02/27 05:03:43;;;;;;;4.53;3.17;;;1.30;99.90;;;;;;5041827;28;20048;-72
2023/02/27 05:06:10;;;;;;;7.50;3.47;;;1.30;99.90;;;;;;5038234;28;20061;-68
2023/02/27 05:08:54;;;;;;;9.20;3.40;;;1.30;99.90;;;;;;5040209;28;20108;-68
2023/02/27 05:11:28;;;;;;;5.90;3.17;;;1.30;99.90;;;;;;5036206;28;20026;-69
2023/02/27 05:13:59;;;;;;;7.93;3.25;;;1.30;99.90;;;;;;5040122;28;20120;-71
2023/02/27 05:16:34;;;;;;;8.18;4.07;;;1.20;99.90;;;;;;5037376;28;20489;-71
2023/02/27 05:19:01;;;;;;;10.75;4.32;;;1.20;99.90;;;;;;5045717;28;20051;-71
2023/02/27 05:21:35;;;;;;;11.63;5.78;;;1.20;99.90;;;;;;5046861;28;20085;-73
2023/02/27 05:24:13;;;;;;;11.45;6.03;;;1.30;99.90;;;;;;5041074;28;20725;-70
2023/02/27 05:26:52;;;;;;;11.38;6.38;;;1.20;99.90;;;;;;5039338;28;20029;-72
2023/02/27 05:29:39;;;;;;;13.98;6.20;;;1.20;99.90;;;;;;5042360;28;20025;-71
2023/02/27 05:32:18;;;;;;;10.88;5.28;;;1.20;99.90;;;;;;5040305;28;20022;-71
2023/02/27 05:34:51;;;;;;;8.25;4.07;;;1.20;99.90;;;;;;5035689;28;20052;-71
2023/02/27 05:37:52;;;;;;;9.35;5.20;;;1.20;99.90;;;;;;5042661;28;20095;-71
2023/02/27 05:40:25;;;;;;;13.13;5.15;;;1.20;99.90;;;;;;5022206;28;20493;-71
2023/02/27 05:43:25;;;;;;;8.50;4.65;;;1.10;99.90;;;;;;5042724;28;20033;-71
2023/02/27 05:46:00;;;;;;;5.78;3.38;;;1.10;99.90;;;;;;5037737;28;20033;-70
2023/02/27 05:49:03;;;;;;;9.55;4.07;;;1.10;99.90;;;;;;5039409;28;20033;-70
2023/02/27 05:51:32;;;;;;;8.27;3.50;;;1.10;99.90;;;;;;5039614;28;20053;-71
2023/02/27 05:54:04;;;;;;;6.82;3.95;;;1.00;99.90;;;;;;5041853;28;20033;-71
2023/02/27 05:56:33;;;;;;;7.13;4.22;;;1.00;99.90;;;;;;5036954;28;20389;-70
2023/02/27 05:59:21;;;;;;;9.68;5.03;;;1.00;99.90;;;;;;5042222;28;20100;-72
2023/02/27 06:01:46;;;;;;;12.15;5.13;;;1.00;99.90;;;;;;5039921;28;20068;-71
2023/02/27 06:04:12;;;;;;;9.77;5.50;;;1.00;99.90;;;;;;5038503;28;20053;-70
2023/02/27 06:06:40;;;;;;;9.23;5.07;;;1.00;99.90;;;;;;5046271;27;20033;-68
2023/02/27 06:09:06;;;;;;;9.43;5.00;;;1.00;99.90;;;;;;5037974;28;20073;-70
2023/02/27 06:11:32;;;;;;;12.38;4.20;;;0.90;99.90;;;;;;5043574;28;20024;-71
2023/02/27 06:13:58;;;;;;;7.95;3.60;;;0.90;99.90;;;;;;5038321;28;20037;-69
2023/02/27 06:16:23;;;;;;;12.45;3.67;;;1.00;99.90;;;;;;5042240;28;20071;-69
2023/02/27 06:18:49;;;;;;;8.95;3.55;;;0.90;99.90;;;;;;5045818;28;20029;-71
2023/02/27 06:21:15;;;;;;;10.32;3.60;;;1.00;99.90;;;;;;5038954;28;20021;-72
2023/02/27 06:23:40;;;;;;;6.38;3.85;;;0.90;99.90;;;;;;5041974;28;20047;-70
2023/02/27 06:26:06;;;;;;;7.78;3.58;;;0.90;99.90;;;;;;5036742;28;20435;-72
2023/02/27 06:28:32;;;;;;;9.48;3.42;;;0.90;99.90;;;;;;5043534;28;20036;-72
2023/02/27 06:30:58;;;;;;;5.30;3.25;;;0.90;99.90;;;;;;5035282;28;20024;-70
2023/02/27 06:33:25;;;;;;;10.18;4.15;;;0.80;99.90;;;;;;5040541;28;20385;-70
2023/02/27 06:35:50;;;;;;;5.38;3.20;;;0.80;99.90;;;;;;5044494;28;20044;-69
2023/02/27 06:38:16;;;;;;;9.35;4.10;;;0.80;99.90;;;;;;5041773;28;20029;-71
2023/02/27 06:40:42;;;;;;;9.93;3.65;;;0.80;99.90;;;;;;5039158;28;20077;-70
2023/02/27 06:43:08;;;;;;;8.43;3.72;;;0.80;99.90;;;;;;5041007;28;20497;-70
2023/02/27 06:45:34;;;;;;;9.07;4.00;;;0.80;99.90;;;;;;5047687;28;20018;-70
2023/02/27 06:48:00;;;;;;;11.73;3.95;;;0.80;99.90;;;;;;5039632;28;20025;-68
2023/02/27 06:50:25;;;;;;;16.45;4.70;;;0.80;99.90;;;;;;5046895;28;20066;-68
2023/02/27 06:52:51;;;;;;;11.75;4.28;;;0.80;99.90;;;;;;5038734;28;20477;-68
2023/02/27 06:55:21;;;;;;;11.95;4.10;;;0.80;99.90;;;;;;5041504;28;20076;-68
2023/02/27 06:57:47;;;;;;;9.68;4.05;;;0.80;99.90;;;;;;5037677;28;20025;-68
2023/02/27 07:00:14;;;;;;;7.97;3.80;;;0.90;99.90;;;;;;5042487;28;20370;-68
2023/02/27 07:02:39;;;;;;;8.10;4.43;;;0.80;99.90;;;;;;5043017;28;20025;-68
2023/02/27 07:05:06;;;;;;;8.77;4.03;;;0.90;99.90;;;;;;5038318;28;20040;-68
2023/02/27 07:07:32;;;;;;;12.82;4.68;;;0.80;99.90;;;;;;5048956;28;20103;-69
2023/02/27 07:09:58;;;;;;;8.48;4.63;;;0.90;99.90;;;;;;5042281;28;20086;-69
2023/02/27 07:12:23;;;;;;;9.13;4.25;;;0.90;99.90;;;;;;5045486;28;20021;-69
2023/02/27 07:14:49;;;;;;;10.20;5.13;;;0.90;99.90;;;;;;5037935;28;20080;-69
2023/02/27 07:17:14;;;;;;;11.50;5.28;;;0.90;99.90;;;;;;5047647;28;20025;-69
2023/02/27 07:19:40;;;;;;;10.00;4.40;;;0.90;99.90;;;;;;5038738;28;20044;-69
2023/02/27 07:22:08;;;;;;;7.80;4.43;;;1.00;99.90;;;;;;5044901;28;20060;-70
2023/02/27 07:24:34;;;;;;;17.88;5.15;;;1.00;99.90;;;;;;5038070;28;20025;-70
2023/02/27 07:26:59;;;;;;;12.30;4.70;;;1.00;99.90;;;;;;5042929;28;20049;-70
2023/02/27 07:29:26;;;;;;;19.60;4.38;;;1.00;99.90;;;;;;5046193;28;20060;-69
2023/02/27 07:31:51;;;;;;;9.57;4.13;;;1.10;99.90;;;;;;5041187;28;20036;-71
2023/02/27 07:34:17;;;;;;;11.70;4.75;;;1.00;99.90;;;;;;5046763;28;20030;-70
2023/02/27 07:36:42;;;;;;;11.27;4.38;;;1.00;99.90;;;;;;5046989;28;20488;-68
2023/02/27 07:39:10;;;;;;;10.88;4.78;;;1.00;99.90;;;;;;5042241;28;20082;-69
2023/02/27 07:41:35;;;;;;;10.07;4.55;;;1.00;99.90;;;;;;5041037;28;20472;-69
2023/02/27 07:44:01;;;;;;;10.48;4.90;;;1.10;99.90;;;;;;5041803;28;20146;-70
2023/02/27 07:46:27;;;;;;;6.03;4.13;;;1.10;99.90;;;;;;5048458;28;20138;-69
2023/02/27 07:48:53;;;;;;;15.35;5.22;;;1.20;99.90;;;;;;5038763;28;20083;-68
2023/02/27 07:51:19;;;;;;;11.90;5.13;;;1.20;99.90;;;;;;5043139;28;20101;-68
2023/02/27 07:53:44;;;;;;;7.38;4.45;;;1.30;99.90;;;;;;5038288;28;20039;-70
2023/02/27 07:56:10;;;;;;;11.13;4.80;;;1.20;99.90;;;;;;5044259;28;20025;-69
2023/02/27 07:58:35;;;;;;;8.82;4.47;;;1.30;99.90;;;;;;5042764;28;21955;-70
2023/02/27 08:01:01;;;;;;;9.10;4.80;;;1.30;99.90;;;;;;5043507;28;20029;-69
2023/02/27 08:03:27;;;;;;;8.50;4.97;;;1.40;99.90;;;;;;5044433;28;20021;-70
2023/02/27 08:05:52;;;;;;;8.10;4.40;;;1.50;99.90;;;;;;5038089;28;20082;-70
2023/02/27 08:08:18;;;;;;;13.57;5.28;;;1.60;99.90;;;;;;5040696;28;20035;-70
2023/02/27 08:10:43;;;;;;;10.80;4.45;;;1.60;99.90;;;;;;5043620;28;20036;-70
2023/02/27 08:13:09;;;;;;;13.05;4.40;;;1.80;99.90;;;;;;5043861;28;20435;-69
2023/02/27 08:15:34;;;;;;;10.75;4.40;;;2.00;99.90;;;;;;5044337;28;20041;-70
2023/02/27 08:18:00;;;;;;;7.78;3.90;;;2.20;99.90;;;;;;5040051;28;20119;-70
2023/02/27 08:20:26;;;;;;;15.65;5.85;;;2.30;99.90;;;;;;5041676;28;20029;-69
2023/02/27 08:22:52;;;;;;;7.57;3.92;;;2.50;99.90;;;;;;5039603;28;20094;-70
2023/02/27 08:25:19;;;;;;;8.60;4.22;;;2.60;99.90;;;;;;5018777;27;20485;-70
2023/02/27 08:27:44;;;;;;;8.13;3.70;;;2.60;99.90;;;;;;5044930;27;20032;-70
2023/02/27 08:30:11;;;;;;;8.02;3.95;;;2.60;99.90;;;;;;5042834;27;20025;-70
2023/02/27 08:32:37;;;;;;;14.63;4.43;;;2.80;99.90;;;;;;5030495;27;20040;-70
2023/02/27 08:35:03;;;;;;;6.32;3.88;;;2.80;99.90;;;;;;5040979;27;20563;-69
2023/02/27 08:37:29;;;;;;;7.35;3.60;;;2.90;99.90;;;;;;5044912;27;20018;-69
2023/02/27 08:39:55;;;;;;;13.90;4.97;;;3.00;99.90;;;;;;5039985;27;20021;-68
2023/02/27 08:42:20;;;;;;;10.45;3.75;;;3.00;99.90;;;;;;5044905;27;20021;-69
2023/02/27 08:44:46;;;;;;;8.40;3.50;;;3.30;99.90;;;;;;5050043;27;20029;-71
2023/02/27 08:47:12;;;;;;;8.07;4.40;;;3.50;99.90;;;;;;5042752;27;20063;-71
2023/02/27 08:49:37;;;;;;;11.07;3.95;;;3.60;99.90;;;;;;5045414;27;20021;-71
2023/02/27 08:52:04;;;;;;;5.78;3.40;;;3.70;99.90;;;;;;5045015;27;20597;-69
2023/02/27 08:54:30;;;;;;;9.77;4.05;;;3.80;99.90;;;;;;5042445;27;20045;-69
2023/02/27 08:56:56;;;;;;;9.00;3.88;;;3.90;99.90;;;;;;5045401;27;20098;-69
2023/02/27 08:59:21;;;;;;;7.82;4.43;;;4.00;99.90;;;;;;5044801;27;20190;-69
2023/02/27 09:01:47;;;;;;;8.93;3.85;;;3.80;99.90;;;;;;5040024;27;20021;-68
2023/02/27 09:04:12;;;;;;;7.05;3.80;;;3.90;99.90;;;;;;5046068;27;20029;-68
2023/02/27 09:06:38;;;;;;;12.18;4.30;;;3.90;99.90;;;;;;5048604;27;20017;-68
2023/02/27 09:09:05;;;;;;;9.90;4.55;;;4.10;99.90;;;;;;5047858;27;20021;-68
2023/02/27 09:11:31;;;;;;;5.05;3.60;;;4.10;99.90;;;;;;5043260;27;20465;-69
2023/02/27 09:13:57;;;;;;;5.90;4.05;;;4.40;99.90;;;;;;5037099;27;20703;-68
2023/02/27 09:16:23;;;;;;;8.13;4.22;;;4.50;99.90;;;;;;5042896;27;20044;-69
2023/02/27 09:18:49;;;;;;;9.63;3.70;;;4.30;99.90;;;;;;5045659;27;20025;-68
2023/02/27 09:21:15;;;;;;;8.73;3.97;;;4.20;99.90;;;;;;5046969;27;20128;-68
2023/02/27 09:23:41;;;;;;;8.80;3.95;;;4.40;99.90;;;;;;5036666;27;20025;-68
2023/02/27 09:26:10;;;;;;;6.63;3.60;;;4.70;99.90;;;;;;5051188;27;20346;-68
2023/02/27 09:28:38;;;;;;;6.15;3.78;;;4.80;99.90;;;;;;5041395;27;20037;-70
2023/02/27 09:31:06;;;;;;;10.07;3.88;;;4.80;99.90;;;;;;5042552;27;20025;-70
2023/02/27 09:33:34;;;;;;;8.52;3.58;;;4.90;99.90;;;;;;5040387;27;20104;-69
2023/02/27 09:35:59;;;;;;;6.07;3.30;;;5.00;99.90;;;;;;5044157;27;20029;-69
2023/02/27 09:38:25;;;;;;;6.53;3.22;;;5.40;99.90;;;;;;5041662;27;20082;-68
2023/02/27 09:40:53;;;;;;;7.05;3.00;;;5.50;99.90;;;;;;5042983;27;20017;-68
2023/02/27 09:43:24;;;;;;;8.90;3.45;;;5.50;99.90;;;;;;5038512;27;20034;-71
2023/02/27 09:45:53;;;;;;;10.63;4.10;;;5.70;99.90;;;;;;5043848;27;20300;-69
2023/02/27 09:48:43;;;;;;;7.15;4.07;;;5.90;99.90;;;;;;5040980;27;20021;-71
2023/02/27 09:51:08;;;;;;;9.15;4.13;;;5.90;99.90;;;;;;5042466;27;20037;-68
2023/02/27 09:53:38;;;;;;;8.73;4.57;;;5.80;99.90;;;;;;5038886;27;20021;-70
2023/02/27 09:56:12;;;;;;;7.22;4.00;;;5.90;99.90;;;;;;5044319;27;20108;-70
2023/02/27 09:58:38;;;;;;;7.15;3.95;;;6.10;99.90;;;;;;5041511;27;20053;-69
2023/02/27 10:01:03;;;;;;;6.55;3.47;;;6.10;99.90;;;;;;5042975;27;20531;-69
2023/02/27 10:03:44;;;;;;;7.50;3.75;;;6.20;99.90;;;;;;5039532;27;20032;-72
2023/02/27 10:06:18;;;;;;;8.57;3.90;;;6.20;99.90;;;;;;5041115;27;20036;-71
2023/02/27 10:08:53;;;;;;;9.85;4.13;;;6.30;99.90;;;;;;5046361;27;20401;-70
2023/02/27 10:11:31;;;;;;;8.93;3.92;;;6.40;99.90;;;;;;5036222;27;20059;-70
2023/02/27 10:14:12;;;;;;;7.03;3.20;;;6.40;99.90;;;;;;5039841;27;20025;-70
2023/02/27 10:16:38;;;;;;;5.68;3.13;;;6.30;99.90;;;;;;5041600;27;20108;-70
2023/02/27 10:19:12;;;;;;;4.65;2.20;;;6.20;99.90;;;;;;5040763;27;20028;-69
2023/02/27 10:21:52;;;;;;;3.63;2.30;;;6.30;99.90;;;;;;5040158;27;20017;-69
2023/02/27 10:24:45;;;;;;;5.82;2.67;;;6.40;99.90;;;;;;5040011;27;20417;-72
2023/02/27 10:27:20;;;;;;;5.68;2.28;;;6.50;99.90;;;;;;5043410;27;20021;-71
2023/02/27 10:29:47;;;;;;;6.70;1.88;;;6.20;99.90;;;;;;5037955;27;20446;-71
2023/02/27 10:32:25;;;;;;;5.82;1.67;;;6.20;99.90;;;;;;5043129;27;20050;-70
2023/02/27 10:35:14;;;;;;;5.90;2.20;;;6.40;99.90;;;;;;5038969;27;20029;-70
2023/02/27 10:37:48;;;;;;;3.80;1.70;;;6.40;99.90;;;;;;5040905;27;20037;-71
2023/02/27 10:40:15;;;;;;;3.80;2.10;;;6.50;99.90;;;;;;5045342;27;20028;-72
2023/02/27 10:42:42;;;;;;;5.88;2.13;;;6.50;99.90;;;;;;5038859;27;20738;-73
2023/02/27 10:45:14;;;;;;;3.45;1.98;;;6.50;99.90;;;;;;5041303;27;20115;-74
2023/02/27 10:47:40;;;;;;;10.95;2.40;;;6.70;99.90;;;;;;5045336;27;20013;-76
2023/02/27 10:50:28;;;;;;;6.57;2.47;;;6.90;99.90;;;;;;5040638;27;21383;-72
2023/02/27 10:53:02;;;;;;;4.75;2.10;;;7.10;99.90;;;;;;5040256;27;20662;-72
2023/02/27 10:55:34;;;;;;;6.03;2.47;;;7.20;99.90;;;;;;5039436;27;20041;-75
2023/02/27 10:58:01;;;;;;;6.20;1.98;;;7.10;99.90;;;;;;5037073;27;20056;-74
2023/02/27 11:00:42;;;;;;;4.60;1.92;;;7.10;99.90;;;;;;5043624;27;20074;-71
2023/02/27 11:03:19;;;;;;;3.92;1.50;;;7.10;99.90;;;;;;5042468;27;20051;-72
2023/02/27 11:05:53;;;;;;;5.13;1.67;;;7.20;99.90;;;;;;5038593;27;20041;-73
2023/02/27 11:08:20;;;;;;;5.65;1.85;;;7.00;99.90;;;;;;5042205;27;20763;-73
2023/02/27 11:11:26;;;;;;;4.18;2.08;;;6.80;99.90;;;;;;5038181;27;20032;-72
2023/02/27 11:13:51;;;;;;;6.53;1.75;;;6.70;99.90;;;;;;5038465;27;20049;-73
2023/02/27 11:16:20;;;;;;;3.55;1.60;;;6.90;99.90;;;;;;5049929;27;20031;-72
2023/02/27 11:18:51;;;;;;;4.35;1.35;;;6.70;99.90;;;;;;5035392;27;20058;-72
2023/02/27 11:21:25;;;;;;;6.80;1.70;;;6.70;99.90;;;;;;5040727;27;20037;-75
2023/02/27 11:23:53;;;;;;;3.25;1.20;;;6.70;99.90;;;;;;5037507;27;20038;-70
2023/02/27 11:26:26;;;;;;;5.40;1.27;;;6.60;99.90;;;;;;5039265;27;20053;-73
2023/02/27 11:29:13;;;;;;;4.65;1.50;;;6.70;99.90;;;;;;5038431;27;20029;-76
2023/02/27 11:31:46;;;;;;;4.70;1.70;;;6.60;99.90;;;;;;5042538;27;20025;-71
2023/02/27 11:34:24;;;;;;;5.32;1.50;;;6.60;99.90;;;;;;5037447;27;20085;-76
2023/02/27 11:36:54;;;;;;;4.45;1.30;;;6.60;99.90;;;;;;5036352;27;20477;-72
2023/02/27 11:39:36;;;;;;;4.35;1.30;;;6.80;99.90;;;;;;5033563;27;20372;-72
2023/02/27 11:42:17;;;;;;;4.95;1.40;;;6.70;99.90;;;;;;5041973;27;20024;-73
2023/02/27 11:44:59;;;;;;;4.47;1.23;;;6.40;99.90;;;;;;5035377;27;20075;-72
2023/02/27 11:47:35;;;;;;;3.70;1.20;;;6.30;99.90;;;;;;5040353;27;20029;-73
2023/02/27 11:50:13;;;;;;;3.47;1.13;;;6.40;99.90;;;;;;5038131;27;20021;-72
2023/02/27 11:52:59;;;;;;;1.65;1.08;;;6.10;99.90;;;;;;5044779;27;20124;-71
2023/02/27 11:55:29;;;;;;;6.20;1.23;;;6.10;99.90;;;;;;5045116;27;20049;-71
2023/02/27 11:58:02;;;;;;;4.88;1.30;;;6.00;99.90;;;;;;5042545;27;20018;-71
2023/02/27 12:00:36;;;;;;;5.25;1.33;;;6.10;99.90;;;;;;5044850;27;20449;-69
2023/02/27 12:03:28;;;;;;;4.47;1.70;;;6.10;99.90;;;;;;5040959;27;20033;-70
2023/02/27 12:05:58;;;;;;;3.45;1.70;;;6.10;99.90;;;;;;5013209;27;20036;-71
2023/02/27 12:08:32;;;;;;;3.40;1.10;;;6.20;99.90;;;;;;5040563;27;20056;-71
2023/02/27 12:11:06;;;;;;;3.00;1.33;;;6.00;99.90;;;;;;5040091;27;20021;-72
2023/02/27 12:13:37;;;;;;;3.55;2.35;;;6.00;99.90;;;;;;5045468;27;20013;-73
2023/02/27 12:16:23;;;;;;;5.05;1.75;;;6.00;99.90;;;;;;5048555;27;20025;-72
2023/02/27 12:18:54;;;;;;;3.38;1.58;;;6.10;99.90;;;;;;5044978;27;20489;-70
2023/02/27 12:21:29;;;;;;;4.00;1.40;;;6.10;99.90;;;;;;5047629;27;21067;-71
2023/02/27 12:24:02;;;;;;;7.07;1.58;;;6.30;99.90;;;;;;5045143;27;20639;-75
2023/02/27 12:26:38;;;;;;;2.33;1.20;;;6.30;99.90;;;;;;5046582;27;20060;-72
2023/02/27 12:29:04;;;;;;;4.88;1.50;;;6.40;99.90;;;;;;5042547;27;20029;-70
2023/02/27 12:31:39;;;;;;;4.07;1.55;;;6.50;99.90;;;;;;5038623;27;20025;-70
2023/02/27 12:34:28;;;;;;;6.30;1.85;;;6.50;99.90;;;;;;5044612;27;20068;-70
2023/02/27 12:37:01;;;;;;;6.18;1.67;;;6.40;99.90;;;;;;5040586;27;20030;-70
2023/02/27 12:39:28;;;;;;;2.35;1.50;;;6.50;99.90;;;;;;5042178;27;20586;-70
2023/02/27 12:42:16;;;;;;;5.00;1.65;;;6.60;99.90;;;;;;5040306;27;20036;-73
2023/02/27 12:44:45;;;;;;;5.65;1.52;;;6.60;99.90;;;;;;5054346;27;20102;-72
2023/02/27 12:47:16;;;;;;;4.00;1.40;;;6.70;99.90;;;;;;5046098;27;20064;-74
2023/02/27 12:50:04;;;;;;;5.57;1.63;;;6.70;99.90;;;;;;4156119;27;10000934;-75
2023/02/27 12:53:08;;;;;;;4.70;1.50;;;6.80;99.90;;;;;;4998183;28;20450;-71
2023/02/27 12:55:44;;;;;;;3.78;1.50;;;6.80;99.90;;;;;;5015212;28;20065;-72
2023/02/27 12:58:32;;;;;;;4.90;1.45;;;6.70;99.90;;;;;;4999631;28;20022;-72
2023/02/27 13:01:23;;;;;;;4.32;1.60;;;6.60;99.90;;;;;;4998439;28;20035;-74
2023/02/27 13:04:26;;;;;;;4.82;1.48;;;6.70;99.90;;;;;;4998751;28;20037;-74
2023/02/27 13:07:12;;;;;;;4.85;1.80;;;6.80;99.90;;;;;;5005270;28;20034;-69
2023/02/27 13:09:54;;;;;;;4.57;1.63;;;6.80;99.90;;;;;;5026065;28;20018;-70
2023/02/27 13:12:38;;;;;;;6.28;1.50;;;6.90;99.90;;;;;;5007998;28;20034;-73
2023/02/27 13:15:22;;;;;;;2.63;1.52;;;7.10;99.90;;;;;;5008444;28;20049;-70
2023/02/27 13:17:53;;;;;;;1.65;1.40;;;7.10;99.90;;;;;;4999593;28;20031;-70
2023/02/27 13:20:41;;;;;;;4.57;1.83;;;7.20;99.90;;;;;;4141792;28;10000276;-71
2023/02/27 13:23:24;;;;;;;8.00;1.58;;;7.30;99.90;;;;;;5003640;28;20026;-71